Time;durP1;ratioP1;P1;durP2;ratioP2;P2;SDS_P1;SDS_P2;PMS_P1;PMS_P2;Temp;Humidity;BMP_temperature;BMP_pressure;BME280_temperature;BME280_humidity;BME280_pressure;Samples;Min_cycle;Max_cycle;Signal;HPM_P1;HPM_P2
2024/01/09 00:02:21;;;;;;;;;;;;;;;-7.06;74.90;103003.78;4862858;29;19931;-72
2024/01/09 00:04:46;;;;;;;;;;;;;;;-7.09;75.16;102995.13;4865825;29;20022;-73
2024/01/09 00:07:12;;;;;;;;;;;;;;;-7.04;74.67;103003.75;4862332;29;20007;-72
2024/01/09 00:09:37;;;;;;;;;;;;;;;-7.03;74.36;103005.47;4858732;29;19931;-73
2024/01/09 00:12:05;;;;;;;;;;;;;;;-7.03;74.37;102992.38;4865321;29;20388;-74
2024/01/09 00:14:32;;;;;;;;;;;;;;;-7.11;74.76;102999.53;4859969;29;19924;-73
2024/01/09 00:16:57;;;;;;;;;;;;;;;-7.21;75.27;102989.22;4862562;29;20098;-73
2024/01/09 00:19:23;;;;;;;;;;;;;;;-7.18;74.83;102990.94;4869145;29;20034;-72
2024/01/09 00:21:52;;;;;;;;;;;;;;;-7.19;74.94;102997.91;4868384;29;19980;-72
2024/01/09 00:24:19;;;;;;;;;;;;;;;-7.18;75.39;102986.53;4865013;29;19931;-74
2024/01/09 00:26:45;;;;;;;;;;;;;;;-7.19;75.36;102979.59;4863232;29;19997;-74
2024/01/09 00:29:10;;;;;;;;;;;;;;;-7.20;75.24;102990.09;4854941;29;20376;-74
2024/01/09 00:31:37;;;;;;;;;;;;;;;-7.20;75.18;102980.47;4861041;29;19928;-74
2024/01/09 00:34:03;;;;;;;;;;;;;;;-7.25;75.50;102982.34;4918397;23;19933;-73
2024/01/09 00:36:30;;;;;;;;;;;;;;;-7.21;75.13;102989.22;4894416;29;20396;-72
2024/01/09 00:38:58;;;;;;;;;;;;;;;-7.26;75.56;102980.59;4880209;29;20673;-72
2024/01/09 00:41:24;;;;;;;;;;;;;;;-7.20;75.72;102987.47;4882130;29;19960;-72
2024/01/09 00:46:18;;;;;;;;;;;;;;;-7.21;75.47;102988.38;4858854;29;19939;-72
2024/01/09 00:48:43;;;;;;;;;;;;;;;-7.28;76.12;102992.84;4862662;29;19924;-73
2024/01/09 00:51:08;;;;;;;;;;;;;;;-7.37;75.92;102985.16;4861551;29;19928;-72
2024/01/09 00:53:34;;;;;;;;;;;;;;;-7.42;77.36;102985.25;4863160;29;20011;-73
2024/01/09 00:55:59;;;;;;;;;;;;;;;-7.43;76.89;102978.28;4862817;29;19924;-72
2024/01/09 00:58:24;;;;;;;;;;;;;;;-7.36;77.04;102989.50;4878857;23;19938;-73
2024/01/09 01:00:49;;;;;;;;;;;;;;;-7.31;76.55;102978.06;4899656;29;19923;-73
2024/01/09 01:03:16;;;;;;;;;;;;;;;-7.36;77.45;102979.03;4904831;29;20303;-73
2024/01/09 01:05:42;;;;;;;;;;;;;;;-7.42;77.75;102973.94;4919231;29;19931;-73
2024/01/09 01:08:07;;;;;;;;;;;;;;;-7.46;77.63;102979.22;4904312;29;19935;-72
2024/01/09 01:10:32;;;;;;;;;;;;;;;-7.43;77.53;102977.44;4899194;29;20389;-72
2024/01/09 01:12:57;;;;;;;;;;;;;;;-7.46;77.95;102973.97;4899162;29;20266;-72
2024/01/09 01:15:23;;;;;;;;;;;;;;;-7.57;78.82;102970.66;4897706;29;19923;-72
2024/01/09 01:17:48;;;;;;;;;;;;;;;-7.62;78.94;102972.50;4897522;29;19946;-73
2024/01/09 01:20:13;;;;;;;;;;;;;;;-7.61;79.56;102959.41;4898777;29;20360;-73
2024/01/09 01:22:39;;;;;;;;;;;;;;;-7.57;79.42;102978.50;4897506;29;19924;-73
2024/01/09 01:25:04;;;;;;;;;;;;;;;-7.55;79.54;102983.75;4896847;29;19930;-72
2024/01/09 01:27:29;;;;;;;;;;;;;;;-7.46;78.92;102978.34;4898359;29;20377;-73
2024/01/09 01:29:57;;;;;;;;;;;;;;;-7.52;78.98;102975.84;4898287;29;20030;-73
2024/01/09 01:32:23;;;;;;;;;;;;;;;-7.56;79.17;102985.47;4906262;29;19958;-73
2024/01/09 01:34:48;;;;;;;;;;;;;;;-7.62;80.61;102977.75;4918807;29;19928;-72
2024/01/09 01:37:13;;;;;;;;;;;;;;;-7.70;80.87;102974.38;4898656;29;19979;-72
2024/01/09 01:39:38;;;;;;;;;;;;;;;-7.70;81.23;102979.63;4898129;29;20413;-73
2024/01/09 01:42:04;;;;;;;;;;;;;;;-7.69;81.05;102976.13;4880887;29;19923;-73
2024/01/09 01:44:29;;;;;;;;;;;;;;;-7.70;81.00;102974.38;4897450;29;21301;-73
2024/01/09 01:46:54;;;;;;;;;;;;;;;-7.67;81.60;102975.19;4895724;29;19927;-72
2024/01/09 01:49:20;;;;;;;;;;;;;;;-7.65;80.45;102975.19;4897198;29;19924;-72
2024/01/09 01:51:49;;;;;;;;;;;;;;;-7.74;81.33;102978.81;4897010;29;19923;-73
2024/01/09 01:54:14;;;;;;;;;;;;;;;-7.66;81.26;102973.44;4897617;29;19931;-73
2024/01/09 01:56:39;;;;;;;;;;;;;;;-7.68;81.48;102964.75;4886621;29;19924;-73
2024/01/09 02:02:02;;;;;;;;;;;;;;;-7.75;82.63;102966.63;4919116;29;19934;-72
2024/01/09 02:04:27;;;;;;;;;;;;;;;-7.82;82.62;102968.47;4918787;29;19927;-72
2024/01/09 02:06:52;;;;;;;;;;;;;;;-7.85;82.31;102970.28;4916547;29;19931;-71
2024/01/09 02:09:18;;;;;;;;;;;;;;;-7.93;83.75;102970.38;4899562;29;19938;-72
2024/01/09 02:11:43;;;;;;;;;;;;;;;-8.00;83.24;102969.63;4901405;29;19931;-72
2024/01/09 02:14:09;;;;;;;;;;;;;;;-8.02;84.50;102974.00;4918110;29;19922;-72
2024/01/09 02:16:34;;;;;;;;;;;;;;;-8.03;84.59;102974.03;4917297;29;19938;-73
2024/01/09 02:19:00;;;;;;;;;;;;;;;-8.02;85.53;102974.00;4917341;29;19923;-73
2024/01/09 02:21:25;;;;;;;;;;;;;;;-7.94;85.47;102984.38;4913143;29;19931;-73
2024/01/09 02:23:51;;;;;;;;;;;;;;;-7.96;83.85;102980.91;4923344;29;19924;-73
2024/01/09 02:26:18;;;;;;;;;;;;;;;-7.90;84.61;102975.56;4934973;29;19923;-73
2024/01/09 02:28:46;;;;;;;;;;;;;;;-7.92;84.56;102977.34;4925054;29;19927;-72
2024/01/09 02:31:11;;;;;;;;;;;;;;;-7.93;83.79;102975.59;4916600;29;19927;-73
2024/01/09 02:33:37;;;;;;;;;;;;;;;-7.91;84.21;102981.69;4916199;29;19923;-73
2024/01/09 02:36:02;;;;;;;;;;;;;;;-7.92;84.35;102975.59;4918928;29;19927;-73
2024/01/09 02:38:27;;;;;;;;;;;;;;;-7.85;84.16;102965.06;4920178;29;19930;-73
2024/01/09 02:40:52;;;;;;;;;;;;;;;-7.89;83.60;102964.22;4918889;29;19923;-73
2024/01/09 02:43:17;;;;;;;;;;;;;;;-7.94;84.04;102968.69;4919448;29;19930;-72
2024/01/09 02:45:43;;;;;;;;;;;;;;;-7.99;84.48;102973.09;4917944;29;20115;-73
2024/01/09 02:48:08;;;;;;;;;;;;;;;-8.03;84.75;102971.44;4918613;29;19930;-73
2024/01/09 02:50:36;;;;;;;;;;;;;;;-8.03;85.28;102980.13;4918712;29;19927;-73
2024/01/09 02:53:01;;;;;;;;;;;;;;;-8.03;84.70;102976.66;4917324;29;19927;-73
2024/01/09 02:55:27;;;;;;;;;;;;;;;-8.02;84.55;102975.75;4919461;29;20276;-73
2024/01/09 02:57:58;;;;;;;;;;;;;;;-7.97;85.16;102981.78;4918604;29;20341;-73
2024/01/09 03:00:24;;;;;;;;;;;;;;;-7.92;84.65;102977.34;4917529;29;19938;-73
2024/01/09 03:02:49;;;;;;;;;;;;;;;-8.01;84.53;102975.72;4918019;29;20291;-73
2024/01/09 03:05:14;;;;;;;;;;;;;;;-8.04;85.00;102981.03;4919037;29;19946;-73
2024/01/09 03:07:40;;;;;;;;;;;;;;;-8.08;85.07;102974.97;4916941;29;20062;-72
2024/01/09 03:10:05;;;;;;;;;;;;;;;-8.10;84.81;102976.72;4918925;29;19946;-73
2024/01/09 03:12:33;;;;;;;;;;;;;;;-8.10;85.63;102971.50;4915521;29;19998;-73
2024/01/09 03:14:58;;;;;;;;;;;;;;;-8.04;84.47;102983.66;4917419;29;19931;-73
2024/01/09 03:17:23;;;;;;;;;;;;;;;-8.04;85.09;102969.69;4918298;29;19938;-74
2024/01/09 03:19:49;;;;;;;;;;;;;;;-8.04;84.97;102985.38;4918850;29;19927;-73
2024/01/09 03:22:14;;;;;;;;;;;;;;;-8.11;84.09;102985.47;4914762;29;19927;-74
2024/01/09 03:24:39;;;;;;;;;;;;;;;-8.10;85.34;102975.88;4900753;29;20557;-73
2024/01/09 03:27:04;;;;;;;;;;;;;;;-8.12;84.70;102973.28;4917408;29;20018;-74
2024/01/09 03:29:30;;;;;;;;;;;;;;;-8.13;84.39;102975.94;4917112;29;19959;-72
2024/01/09 03:31:55;;;;;;;;;;;;;;;-8.11;84.37;102974.16;4900482;29;20394;-72
2024/01/09 03:34:20;;;;;;;;;;;;;;;-8.14;84.61;102974.19;4950467;23;19985;-72
2024/01/09 03:36:45;;;;;;;;;;;;;;;-8.10;84.19;102976.72;4873282;29;19931;-72
2024/01/09 03:39:12;;;;;;;;;;;;;;;-8.16;85.71;102975.97;4905435;23;19966;-73
2024/01/09 03:41:37;;;;;;;;;;;;;;;-8.18;84.92;102970.78;4898940;29;19923;-73
2024/01/09 03:44:03;;;;;;;;;;;;;;;-8.16;85.18;102968.13;4897688;29;19931;-73
2024/01/09 03:49:03;;;;;;;;;;;;;;;-8.10;84.34;102981.13;5158814;23;19931;-73
2024/01/09 03:56:59;;;;;;;;;;;;;;;-8.18;84.76;102957.72;4897538;29;19946;-73
2024/01/09 03:59:24;;;;;;;;;;;;;;;-8.15;84.02;102970.72;5031751;23;20418;-74
2024/01/09 04:01:49;;;;;;;;;;;;;;;-8.09;82.94;102962.78;4897561;29;19923;-73
2024/01/09 04:04:17;;;;;;;;;;;;;;;-8.17;83.96;102955.94;4897266;29;19938;-73
2024/01/09 04:06:49;;;;;;;;;;;;;;;-8.17;83.31;102956.81;4898208;29;20485;-73
2024/01/09 04:09:14;;;;;;;;;;;;;;;-8.17;83.13;102964.66;4896714;29;19938;-73
2024/01/09 04:11:45;;;;;;;;;;;;;;;-8.17;83.84;102946.38;4898595;29;19923;-73
2024/01/09 04:14:10;;;;;;;;;;;;;;;-8.16;83.29;102958.56;4897019;29;19923;-73
2024/01/09 04:22:53;;;;;;;;;;;;;;;-8.28;83.87;102940.41;4898287;29;20395;-73
2024/01/09 04:25:18;;;;;;;;;;;;;;;-8.33;84.35;102934.44;4897041;29;19934;-72
2024/01/09 04:27:43;;;;;;;;;;;;;;;-8.38;85.73;102937.06;4898900;29;20006;-73
2024/01/09 04:30:09;;;;;;;;;;;;;;;-8.39;85.60;102935.38;4897352;29;19970;-73
2024/01/09 04:32:34;;;;;;;;;;;;;;;-8.43;84.54;102936.31;4898997;29;19923;-73
2024/01/09 04:34:59;;;;;;;;;;;;;;;-8.40;84.68;102933.66;4900276;29;19979;-73
2024/01/09 04:37:24;;;;;;;;;;;;;;;-8.49;86.13;102937.28;4903147;29;19970;-73
2024/01/09 04:39:50;;;;;;;;;;;;;;;-8.51;85.48;102939.06;4916231;29;19946;-72
2024/01/09 04:42:15;;;;;;;;;;;;;;;-8.54;86.35;102946.94;4905896;29;19924;-72
2024/01/09 04:44:40;;;;;;;;;;;;;;;-8.57;86.59;102945.22;4898640;29;19946;-73
2024/01/09 04:47:05;;;;;;;;;;;;;;;-8.56;86.95;102939.09;4899033;29;19923;-73
2024/01/09 04:49:31;;;;;;;;;;;;;;;-8.62;86.59;102946.16;4897946;29;19971;-73
2024/01/09 04:51:56;;;;;;;;;;;;;;;-8.57;86.61;102945.22;4897071;29;19927;-73
2024/01/09 04:54:21;;;;;;;;;;;;;;;-8.56;85.61;102941.72;4898440;29;20395;-73
2024/01/09 04:56:46;;;;;;;;;;;;;;;-8.57;86.53;102946.97;4897904;29;20380;-79
2024/01/09 04:59:12;;;;;;;;;;;;;;;-8.63;89.26;102931.38;4897348;29;20010;-72
2024/01/09 05:01:39;;;;;;;;;;;;;;;-8.64;88.05;102940.09;4897638;29;19966;-71
2024/01/09 05:04:04;;;;;;;;;;;;;;;-8.65;87.87;102956.66;4902656;29;19954;-73
2024/01/09 05:06:31;;;;;;;;;;;;;;;-8.72;87.38;102950.63;4907023;29;19924;-72
2024/01/09 05:08:56;;;;;;;;;;;;;;;-8.72;87.73;102945.41;4909409;29;19923;-74
2024/01/09 05:11:21;;;;;;;;;;;;;;;-8.71;87.33;102950.63;4902213;29;19931;-73
2024/01/09 05:13:47;;;;;;;;;;;;;;;-8.75;87.44;102951.53;4896456;29;19927;-73
2024/01/09 05:16:12;;;;;;;;;;;;;;;-8.77;88.40;102952.47;4897004;29;20410;-72
2024/01/09 05:18:37;;;;;;;;;;;;;;;-8.69;87.87;102956.69;4896954;29;19987;-73
2024/01/09 05:21:02;;;;;;;;;;;;;;;-8.71;87.24;102950.63;4895688;29;19924;-73
2024/01/09 05:23:28;;;;;;;;;;;;;;;-8.73;87.62;102952.38;4895927;29;19937;-73
2024/01/09 05:25:53;;;;;;;;;;;;;;;-8.76;87.70;102949.81;4897791;29;20002;-73
2024/01/09 05:28:18;;;;;;;;;;;;;;;-8.73;87.93;102952.38;4903096;23;19927;-73
2024/01/09 05:30:43;;;;;;;;;;;;;;;-8.79;86.67;102944.63;4896917;29;19939;-73
2024/01/09 05:33:09;;;;;;;;;;;;;;;-8.79;87.05;102938.56;4908210;29;19992;-72
2024/01/09 05:35:34;;;;;;;;;;;;;;;-8.81;86.48;102935.94;4909778;29;19927;-73
2024/01/09 05:37:59;;;;;;;;;;;;;;;-8.77;87.10;102942.88;4904312;29;19927;-73
2024/01/09 05:40:24;;;;;;;;;;;;;;;-8.82;86.87;102947.28;4899461;29;19979;-73
2024/01/09 05:42:49;;;;;;;;;;;;;;;-8.79;87.55;102941.16;4897106;29;19949;-72
2024/01/09 05:45:15;;;;;;;;;;;;;;;-8.86;87.73;102945.59;4896987;29;19924;-74
2024/01/09 05:47:40;;;;;;;;;;;;;;;-8.93;88.70;102946.56;4897920;29;20356;-74
2024/01/09 05:50:06;;;;;;;;;;;;;;;-8.95;88.21;102943.97;4897088;29;19923;-73
2024/01/09 05:52:33;;;;;;;;;;;;;;;-8.96;87.69;102941.34;4898923;29;20010;-72
2024/01/09 05:54:59;;;;;;;;;;;;;;;-9.00;88.63;102941.38;4899197;29;19959;-74
2024/01/09 05:57:24;;;;;;;;;;;;;;;-8.93;87.83;102950.03;4900219;29;19923;-73
2024/01/09 05:59:49;;;;;;;;;;;;;;;-8.97;87.86;102945.72;4905854;29;19931;-71
2024/01/09 06:02:14;;;;;;;;;;;;;;;-8.96;86.75;102946.56;4909362;29;19951;-72
2024/01/09 06:04:40;;;;;;;;;;;;;;;-9.01;87.70;102954.47;4893275;29;19931;-72
2024/01/09 06:07:05;;;;;;;;;;;;;;;-9.04;87.21;102965.81;4909414;29;19980;-72
2024/01/09 06:09:30;;;;;;;;;;;;;;;-8.98;86.78;102960.50;4898398;29;19934;-73
2024/01/09 06:11:55;;;;;;;;;;;;;;;-8.88;86.51;102960.41;4901020;29;19923;-73
2024/01/09 06:14:21;;;;;;;;;;;;;;;-8.95;86.38;102958.75;4899770;29;20014;-73
2024/01/09 06:16:46;;;;;;;;;;;;;;;-9.02;87.13;102963.19;4900996;29;20380;-73
2024/01/09 06:19:11;;;;;;;;;;;;;;;-8.99;86.64;102963.16;4900846;29;20335;-73
2024/01/09 06:21:36;;;;;;;;;;;;;;;-9.04;87.54;102967.53;4900523;29;20376;-72
2024/01/09 06:24:02;;;;;;;;;;;;;;;-9.08;86.49;102966.72;4900210;29;19924;-73
2024/01/09 06:26:27;;;;;;;;;;;;;;;-9.17;88.28;102974.63;4906753;23;19924;-73
2024/01/09 06:28:52;;;;;;;;;;;;;;;-9.10;86.87;102973.69;4899591;29;19924;-73
2024/01/09 06:31:18;;;;;;;;;;;;;;;-9.12;87.03;102969.41;4899618;29;19924;-73
2024/01/09 06:33:43;;;;;;;;;;;;;;;-9.13;88.16;102965.91;4906530;23;19927;-73
2024/01/09 06:36:08;;;;;;;;;;;;;;;-9.14;87.04;102966.78;5175791;23;19960;-73
2024/01/09 06:38:33;;;;;;;;;;;;;;;-9.15;87.64;102963.31;4899755;29;20369;-73
2024/01/09 06:41:06;;;;;;;;;;;;;;;-9.06;86.93;102967.56;4899739;29;19923;-72
2024/01/09 06:43:32;;;;;;;;;;;;;;;-9.07;87.50;102964.97;4899323;29;20292;-73
2024/01/09 06:45:58;;;;;;;;;;;;;;;-9.09;87.95;102964.16;4899210;29;19986;-72
2024/01/09 06:48:23;;;;;;;;;;;;;;;-9.03;87.59;102972.75;4899874;29;20597;-73
2024/01/09 06:50:48;;;;;;;;;;;;;;;-9.11;86.93;102971.97;4898850;29;20018;-73
2024/01/09 06:53:13;;;;;;;;;;;;;;;-9.15;88.50;102971.16;4899608;29;20391;-73
2024/01/09 06:55:39;;;;;;;;;;;;;;;-9.15;89.10;102983.31;4900240;29;19930;-73
2024/01/09 06:58:04;;;;;;;;;;;;;;;-9.19;88.06;102986.84;4899473;29;20296;-73
2024/01/09 07:00:29;;;;;;;;;;;;;;;-9.24;89.84;102980.81;4899471;29;19923;-73
2024/01/09 07:02:57;;;;;;;;;;;;;;;-9.27;89.29;102984.34;4899634;29;20280;-73
2024/01/09 07:07:59;;;;;;;;;;;;;;;-9.29;89.52;102986.94;4843112;29;19929;-73
2024/01/09 07:10:46;;;;;;;;;;;;;;;-9.25;90.37;102997.34;4852185;29;19928;-73
2024/01/09 07:13:12;;;;;;;;;;;;;;;-9.27;90.46;102992.16;4843715;29;19928;-73
2024/01/09 07:15:53;;;;;;;;;;;;;;;-9.25;90.78;102992.13;4849922;29;20432;-73
2024/01/09 07:18:24;;;;;;;;;;;;;;;-9.26;89.27;102993.00;4858677;29;19924;-73
2024/01/09 07:20:55;;;;;;;;;;;;;;;-9.25;88.73;102986.91;4851053;29;19924;-73
2024/01/09 07:23:51;;;;;;;;;;;;;;;-9.28;88.76;102995.63;4844847;29;20389;-73
2024/01/09 07:26:17;;;;;;;;;;;;;;;-9.32;89.74;103001.75;4855675;29;19920;-73
2024/01/09 07:28:51;;;;;;;;;;;;;;;-9.34;89.36;102998.28;4853414;29;20026;-73
2024/01/09 07:31:25;;;;;;;;;;;;;;;-9.33;90.38;103008.69;4860365;29;20368;-73
2024/01/09 07:34:09;;;;;;;;;;;;;;;-9.38;90.18;103000.09;4846636;29;19925;-73
2024/01/09 07:36:53;;;;;;;;;;;;;;;-9.37;89.57;103009.63;4848714;29;20036;-73
2024/01/09 07:39:24;;;;;;;;;;;;;;;-9.36;90.00;103005.28;4850974;29;19925;-73
2024/01/09 07:41:50;;;;;;;;;;;;;;;-9.41;89.59;103002.72;4850210;29;19928;-73
2024/01/09 07:44:15;;;;;;;;;;;;;;;-9.41;90.29;103002.72;4853028;29;19924;-73
2024/01/09 07:46:40;;;;;;;;;;;;;;;-9.39;90.76;103006.19;4862526;29;19924;-73
2024/01/09 07:49:06;;;;;;;;;;;;;;;-9.37;89.27;103004.41;4853081;29;19928;-73
2024/01/09 07:51:31;;;;;;;;;;;;;;;-9.38;90.80;103000.09;4852826;29;19973;-72
2024/01/09 07:53:56;;;;;;;;;;;;;;;-9.38;89.41;103001.81;4854016;29;19925;-73
2024/01/09 07:56:22;;;;;;;;;;;;;;;-9.35;90.31;103007.84;4845935;29;19963;-73
2024/01/09 07:58:47;;;;;;;;;;;;;;;-9.29;88.40;103006.94;4848464;29;19924;-73
2024/01/09 08:01:12;;;;;;;;;;;;;;;-9.23;87.48;103011.25;4844118;29;19925;-73
2024/01/09 08:03:38;;;;;;;;;;;;;;;-9.19;88.53;103013.81;4861441;29;19931;-72
2024/01/09 08:06:03;;;;;;;;;;;;;;;-9.15;86.99;103017.22;4852944;29;19924;-73
2024/01/09 08:14:06;;;;;;;;;;;;;;;-9.12;87.11;103014.59;4874604;29;20090;-74
2024/01/09 08:16:31;;;;;;;;;;;;;;;-9.06;86.33;103027.59;4880657;29;20419;-73
2024/01/09 08:18:56;;;;;;;;;;;;;;;-9.05;87.13;103018.88;4881137;29;20411;-72
2024/01/09 08:21:22;;;;;;;;;;;;;;;-9.01;87.33;103025.81;4881006;29;20248;-72
2024/01/09 08:23:47;;;;;;;;;;;;;;;-8.99;86.93;103025.78;4882649;29;19923;-74
2024/01/09 08:26:13;;;;;;;;;;;;;;;-9.00;85.65;103027.50;4883268;29;19941;-73
2024/01/09 08:28:38;;;;;;;;;;;;;;;-8.96;86.40;103030.09;4896503;29;19916;-72
2024/01/09 08:31:03;;;;;;;;;;;;;;;-8.90;86.66;103035.25;4897246;29;20360;-72
2024/01/09 08:33:31;;;;;;;;;;;;;;;-8.89;86.22;103037.00;4879110;29;19942;-72
2024/01/09 08:35:57;;;;;;;;;;;;;;;-8.84;86.21;103046.50;4878903;29;19975;-72
2024/01/09 08:38:22;;;;;;;;;;;;;;;-8.84;85.70;103043.88;4879399;29;19970;-72
2024/01/09 08:51:00;;;;;;;;;;;;;;;-8.50;82.31;103032.19;5043345;23;19988;-73
2024/01/09 08:53:28;;;;;;;;;;;;;;;-8.48;82.83;103038.28;4904103;29;19983;-74
2024/01/09 08:55:53;;;;;;;;;;;;;;;-8.43;81.53;103041.63;4906401;29;19924;-71
2024/01/09 08:58:21;;;;;;;;;;;;;;;-8.38;81.98;103042.44;4909885;29;19928;-72
2024/01/09 09:03:12;;;;;;;;;;;;;;;-8.33;80.95;103036.31;5099132;23;19931;-72
2024/01/09 09:05:37;;;;;;;;;;;;;;;-8.28;80.31;103043.19;4897098;29;20044;-72
2024/01/09 09:08:04;;;;;;;;;;;;;;;-8.24;80.05;103051.84;4898029;29;19923;-72
2024/01/09 09:10:30;;;;;;;;;;;;;;;-8.22;80.19;103047.47;4897278;29;20011;-73
2024/01/09 09:13:01;;;;;;;;;;;;;;;-8.14;80.04;103057.81;4896740;29;19924;-74
2024/01/09 09:15:26;;;;;;;;;;;;;;;-8.10;77.94;103057.75;4897055;29;20000;-73
2024/01/09 09:20:27;;;;;;;;;;;;;;;-7.96;76.51;103054.94;4913440;23;19935;-74
2024/01/09 09:22:58;;;;;;;;;;;;;;;-7.93;77.38;103056.66;4905677;29;19952;-73
2024/01/09 09:25:24;;;;;;;;;;;;;;;-7.86;75.83;103047.84;4906207;29;19927;-74
2024/01/09 09:27:49;;;;;;;;;;;;;;;-7.82;75.72;103041.69;4910416;29;19987;-72
2024/01/09 09:30:14;;;;;;;;;;;;;;;-7.72;74.77;103047.66;4900237;29;19923;-73
2024/01/09 09:32:40;;;;;;;;;;;;;;;-7.68;73.77;103041.50;4898236;29;19983;-73
2024/01/09 09:35:05;;;;;;;;;;;;;;;-7.58;72.38;103054.41;4897326;29;19923;-73
2024/01/09 09:37:31;;;;;;;;;;;;;;;-7.49;71.93;103057.75;4897570;29;19934;-72
2024/01/09 09:39:56;;;;;;;;;;;;;;;-7.44;71.36;103049.81;4896575;29;19934;-73
2024/01/09 09:42:22;;;;;;;;;;;;;;;-7.41;70.67;103054.16;4897139;29;20428;-72
2024/01/09 09:44:52;;;;;;;;;;;;;;;-7.35;68.79;103049.66;4881910;29;19980;-73
2024/01/09 09:47:17;;;;;;;;;;;;;;;-7.28;68.01;103053.03;4899824;29;20016;-73
2024/01/09 09:49:50;;;;;;;;;;;;;;;-7.26;67.96;103043.41;4904929;29;20352;-73
2024/01/09 09:52:15;;;;;;;;;;;;;;;-7.16;66.34;103042.34;4895080;29;20063;-74
2024/01/09 09:54:41;;;;;;;;;;;;;;;-7.10;66.91;103040.53;4894657;29;19927;-73
2024/01/09 09:57:06;;;;;;;;;;;;;;;-7.06;67.15;103026.50;4909167;29;19948;-73
2024/01/09 09:59:31;;;;;;;;;;;;;;;-7.03;67.07;103032.53;4898148;29;19923;-74
2024/01/09 10:01:57;;;;;;;;;;;;;;;-6.96;66.14;103030.66;4880253;29;20290;-72
2024/01/09 10:04:29;;;;;;;;;;;;;;;-6.90;65.31;103032.28;4896996;29;19924;-73
2024/01/09 10:06:56;;;;;;;;;;;;;;;-6.89;66.48;103031.41;4897055;29;19923;-73
2024/01/09 10:09:27;;;;;;;;;;;;;;;-6.89;66.40;103015.69;4897057;29;19931;-73
2024/01/09 10:11:53;;;;;;;;;;;;;;;-6.81;65.33;103020.78;4896434;29;19923;-73
2024/01/09 10:14:18;;;;;;;;;;;;;;;-6.76;64.47;103019.78;4897070;29;19976;-73
2024/01/09 10:16:50;;;;;;;;;;;;;;;-6.66;63.21;103025.72;4903272;23;19931;-72
2024/01/09 10:19:16;;;;;;;;;;;;;;;-6.62;63.67;103030.00;4889613;29;19931;-73
2024/01/09 10:21:41;;;;;;;;;;;;;;;-6.51;62.07;103018.41;4896599;29;19971;-73
2024/01/09 10:24:07;;;;;;;;;;;;;;;-6.46;62.62;103019.19;4957213;23;19971;-73
2024/01/09 10:26:32;;;;;;;;;;;;;;;-6.43;61.79;103008.66;4880224;29;20582;-73
2024/01/09 10:28:58;;;;;;;;;;;;;;;-6.38;61.76;103011.19;4878987;29;19966;-73
2024/01/09 10:31:23;;;;;;;;;;;;;;;-6.27;60.54;103023.16;4897020;29;20300;-73
2024/01/09 10:33:49;;;;;;;;;;;;;;;-6.24;61.63;103003.88;4896906;29;19923;-73
2024/01/09 10:36:14;;;;;;;;;;;;;;;-6.21;61.68;103003.81;4896069;29;19971;-74
2024/01/09 10:38:39;;;;;;;;;;;;;;;-6.13;60.51;103001.00;4897718;29;20502;-74
2024/01/09 10:41:14;;;;;;;;;;;;;;;-6.11;59.83;103000.09;4896077;29;20440;-73
2024/01/09 10:43:39;;;;;;;;;;;;;;;-6.04;59.90;102982.47;4895721;29;19923;-73
2024/01/09 10:46:05;;;;;;;;;;;;;;;-6.00;57.99;103007.69;4897597;29;19931;-74
2024/01/09 10:48:31;;;;;;;;;;;;;;;-5.97;58.47;102991.84;4897462;29;19930;-73
2024/01/09 10:50:56;;;;;;;;;;;;;;;-5.95;58.35;102995.31;4895931;29;19979;-73
2024/01/09 10:53:22;;;;;;;;;;;;;;;-5.87;57.30;102992.50;4897031;29;19967;-73
2024/01/09 10:55:48;;;;;;;;;;;;;;;-5.83;57.75;102998.56;4880416;29;19939;-73
2024/01/09 10:58:13;;;;;;;;;;;;;;;-5.71;56.33;102987.75;4881925;29;19924;-73
2024/01/09 11:00:38;;;;;;;;;;;;;;;-5.68;57.50;102987.69;4884108;29;19923;-73
2024/01/09 11:03:04;;;;;;;;;;;;;;;-5.67;57.44;102983.28;4882805;29;20305;-73
2024/01/09 11:05:29;;;;;;;;;;;;;;;-5.65;56.77;102976.25;4898813;29;20387;-73
2024/01/09 11:07:55;;;;;;;;;;;;;;;-5.54;57.12;102974.19;4883874;29;20293;-73
2024/01/09 11:10:23;;;;;;;;;;;;;;;-5.48;56.67;102978.44;4899315;29;20692;-74
2024/01/09 11:12:50;;;;;;;;;;;;;;;-5.35;55.20;102971.97;4899308;29;19934;-73
2024/01/09 11:15:22;;;;;;;;;;;;;;;-5.36;53.79;102975.50;4883778;29;20014;-73
2024/01/09 11:18:01;;;;;;;;;;;;;;;-5.27;53.99;102970.88;4892925;29;19994;-73
2024/01/09 11:20:27;;;;;;;;;;;;;;;-5.21;53.08;102978.63;4898913;29;19923;-73
2024/01/09 11:22:52;;;;;;;;;;;;;;;-5.18;54.15;102971.50;4900713;29;19930;-73
2024/01/09 11:25:20;;;;;;;;;;;;;;;-5.12;53.28;102964.38;4950958;23;20355;-74
2024/01/09 11:27:51;;;;;;;;;;;;;;;-5.08;53.26;102956.34;4899442;29;20401;-73
2024/01/09 11:30:16;;;;;;;;;;;;;;;-5.06;52.36;102959.81;4900332;29;19945;-73
2024/01/09 11:32:43;;;;;;;;;;;;;;;-5.02;53.74;102955.31;4898828;29;20440;-73
2024/01/09 11:35:09;;;;;;;;;;;;;;;-4.99;52.79;102949.97;4899304;29;20273;-74
2024/01/09 11:37:34;;;;;;;;;;;;;;;-4.91;52.74;102950.66;4900446;29;19930;-74
2024/01/09 11:40:00;;;;;;;;;;;;;;;-4.85;51.97;102943.50;4881857;29;19974;-73
2024/01/09 11:42:25;;;;;;;;;;;;;;;-4.81;52.71;102938.09;4882085;29;20488;-73
2024/01/09 11:44:53;;;;;;;;;;;;;;;-4.76;52.07;102949.31;4899855;29;20348;-73
2024/01/09 11:47:18;;;;;;;;;;;;;;;-4.70;52.09;102950.06;4898376;29;19933;-73
2024/01/09 11:49:44;;;;;;;;;;;;;;;-4.62;51.49;102941.03;4899246;29;20329;-74
2024/01/09 11:52:12;;;;;;;;;;;;;;;-4.56;51.69;102932.09;4899878;29;20303;-73
2024/01/09 11:54:37;;;;;;;;;;;;;;;-4.48;52.63;102935.38;4898308;29;20376;-73
2024/01/09 11:57:03;;;;;;;;;;;;;;;-4.37;50.50;102937.66;4899027;29;19920;-73
2024/01/09 11:59:30;;;;;;;;;;;;;;;-4.26;51.29;102948.72;4899650;29;19931;-73
2024/01/09 12:01:55;;;;;;;;;;;;;;;-4.15;50.49;102951.00;4899465;29;19924;-73
2024/01/09 12:04:20;;;;;;;;;;;;;;;-3.93;49.09;102936.28;4899332;29;19930;-73
2024/01/09 12:06:47;;;;;;;;;;;;;;;-3.32;48.13;102938.59;4900294;29;19971;-73
2024/01/09 12:09:12;;;;;;;;;;;;;;;-2.38;46.77;102942.16;4899548;29;19923;-73
2024/01/09 12:11:37;;;;;;;;;;;;;;;-1.28;44.75;102939.41;4900714;29;20376;-72
2024/01/09 12:14:03;;;;;;;;;;;;;;;-0.31;42.84;102934.09;4902094;29;20443;-73
2024/01/09 12:16:34;;;;;;;;;;;;;;;0.41;39.92;102932.31;4903061;29;19931;-73
2024/01/09 12:18:59;;;;;;;;;;;;;;;1.03;39.34;102930.88;4916602;29;19931;-72
2024/01/09 12:21:26;;;;;;;;;;;;;;;1.17;37.65;102928.34;4916640;29;20336;-73
2024/01/09 12:23:51;;;;;;;;;;;;;;;1.13;36.96;102926.81;4900019;29;20022;-73
2024/01/09 12:26:18;;;;;;;;;;;;;;;1.23;37.60;102929.81;4898606;29;19963;-73
2024/01/09 12:28:49;;;;;;;;;;;;;;;1.25;37.31;102925.25;4898705;29;19923;-73
2024/01/09 12:31:19;;;;;;;;;;;;;;;1.73;35.83;102913.81;4891605;29;19935;-73
2024/01/09 12:33:44;;;;;;;;;;;;;;;1.99;35.28;102922.06;4898696;29;19966;-73
2024/01/09 12:36:09;;;;;;;;;;;;;;;2.08;34.82;102905.59;4898210;29;19970;-73
2024/01/09 12:38:35;;;;;;;;;;;;;;;2.10;34.89;102895.75;4898791;29;20392;-73
2024/01/09 12:41:00;;;;;;;;;;;;;;;2.35;33.71;102900.44;4897077;29;20013;-73
2024/01/09 12:43:26;;;;;;;;;;;;;;;1.86;33.92;102893.56;4898403;29;19923;-74
2024/01/09 12:45:51;;;;;;;;;;;;;;;1.99;34.67;102883.09;4900409;29;20006;-73
2024/01/09 12:48:16;;;;;;;;;;;;;;;2.11;33.93;102886.81;4908597;29;19924;-74
2024/01/09 12:50:41;;;;;;;;;;;;;;;1.84;33.63;102878.66;4902839;29;19927;-73
2024/01/09 12:53:07;;;;;;;;;;;;;;;2.04;33.68;102885.47;4901529;29;20022;-74
2024/01/09 12:55:32;;;;;;;;;;;;;;;2.19;33.55;102894.34;4899249;29;19967;-73
2024/01/09 12:57:58;;;;;;;;;;;;;;;1.91;33.80;102880.00;4897419;29;19924;-73
2024/01/09 13:00:24;;;;;;;;;;;;;;;1.52;33.87;102874.25;4898018;29;19979;-73
2024/01/09 13:02:51;;;;;;;;;;;;;;;1.59;34.37;102877.41;4897450;29;20418;-74
2024/01/09 13:05:18;;;;;;;;;;;;;;;1.93;34.08;102879.00;4897132;29;19929;-73
2024/01/09 13:07:44;;;;;;;;;;;;;;;2.05;33.74;102872.06;4898679;29;19959;-74
2024/01/09 13:10:10;;;;;;;;;;;;;;;1.93;33.70;102873.69;4899136;29;20388;-73
2024/01/09 13:12:35;;;;;;;;;;;;;;;1.89;33.48;102874.78;4897486;29;20369;-73
2024/01/09 13:15:00;;;;;;;;;;;;;;;1.42;33.51;102865.09;4899660;29;20396;-74
2024/01/09 13:17:25;;;;;;;;;;;;;;;1.33;34.23;102867.34;4919083;29;19927;-74